Time;durP1;ratioP1;P1;durP2;ratioP2;P2;SDS_P1;SDS_P2;PMS_P1;PMS_P2;Temp;Humidity;BMP_temperature;BMP_pressure;BME280_temperature;BME280_humidity;BME280_pressure;Samples;Min_cycle;Max_cycle;Signal;HPM_P1;HPM_P2
2022/11/19 00:00:47;;;;;;;17.77;13.20;;;1.60;99.90;;;;;;5052987;28;20116;-57
2022/11/19 00:03:20;;;;;;;19.40;13.70;;;1.60;99.90;;;;;;5049272;28;20518;-51
2022/11/19 00:05:48;;;;;;;16.15;13.23;;;1.60;99.90;;;;;;5051609;28;20063;-52
2022/11/19 00:08:17;;;;;;;18.35;13.60;;;1.60;99.90;;;;;;5051697;28;20410;-54
2022/11/19 00:10:43;;;;;;;17.38;12.27;;;1.60;99.90;;;;;;5062530;28;20040;-52
2022/11/19 00:13:09;;;;;;;20.05;13.57;;;1.60;99.90;;;;;;5069779;28;20052;-55
2022/11/19 00:15:35;;;;;;;19.20;13.97;;;1.50;99.90;;;;;;5070925;28;20045;-54
2022/11/19 00:18:02;;;;;;;19.35;13.85;;;1.50;99.90;;;;;;5071008;28;20036;-55
2022/11/19 00:20:28;;;;;;;15.35;12.70;;;1.50;99.90;;;;;;5063842;28;20033;-54
2022/11/19 00:22:56;;;;;;;19.70;14.05;;;1.50;99.90;;;;;;5050531;28;20478;-57
2022/11/19 00:25:22;;;;;;;18.42;13.75;;;1.50;99.90;;;;;;5050564;28;20037;-55
2022/11/19 00:27:48;;;;;;;;;;;1.50;99.90;;;;;;5051952;28;20148;-54
2022/11/19 00:30:14;;;;;;;18.25;12.73;;;1.50;99.90;;;;;;5053594;28;19917;-57
2022/11/19 00:32:39;;;;;;;17.13;12.32;;;1.50;99.90;;;;;;5050829;28;20041;-55
2022/11/19 00:35:05;;;;;;;17.40;13.10;;;1.50;99.90;;;;;;5066008;28;20037;-52
2022/11/19 00:37:32;;;;;;;17.05;13.55;;;1.50;99.90;;;;;;5051356;28;20041;-50
2022/11/19 00:39:57;;;;;;;16.67;12.35;;;1.50;99.90;;;;;;5071655;28;20134;-51
2022/11/19 00:42:23;;;;;;;17.50;13.30;;;1.50;99.90;;;;;;5058641;28;20120;-51
2022/11/19 00:44:49;;;;;;;16.75;12.45;;;1.50;99.90;;;;;;5055896;28;20497;-51
2022/11/19 00:47:15;;;;;;;16.85;12.48;;;1.50;99.90;;;;;;5070628;28;20047;-54
2022/11/19 00:49:41;;;;;;;16.95;11.77;;;1.50;99.90;;;;;;5071433;28;20413;-53
2022/11/19 00:52:07;;;;;;;16.40;12.63;;;1.50;99.90;;;;;;5070703;28;20113;-57
2022/11/19 00:54:32;;;;;;;14.70;11.13;;;1.40;99.90;;;;;;5069462;28;20041;-52
2022/11/19 00:56:58;;;;;;;18.17;12.03;;;1.50;99.90;;;;;;5069006;28;20037;-53
2022/11/19 00:59:23;;;;;;;21.10;12.83;;;1.40;99.90;;;;;;5065073;28;20037;-52
2022/11/19 01:01:49;;;;;;;15.57;10.23;;;1.40;99.90;;;;;;5050226;28;20048;-53
2022/11/19 01:04:15;;;;;;;13.13;10.53;;;1.40;99.90;;;;;;5049220;28;20056;-54
2022/11/19 01:06:40;;;;;;;12.90;10.03;;;1.40;99.90;;;;;;5050304;28;20067;-51
2022/11/19 01:09:06;;;;;;;12.90;10.13;;;1.40;99.90;;;;;;5050536;28;20589;-51
2022/11/19 01:11:33;;;;;;;13.03;9.70;;;1.40;99.90;;;;;;5059230;28;20044;-54
2022/11/19 01:14:01;;;;;;;11.65;9.32;;;1.40;99.90;;;;;;5078919;28;20040;-53
2022/11/19 01:16:32;;;;;;;13.43;9.68;;;1.40;99.90;;;;;;5060399;28;20056;-51
2022/11/19 01:18:58;;;;;;;11.85;9.48;;;1.30;99.90;;;;;;5084947;28;20114;-53
2022/11/19 01:21:26;;;;;;;10.77;8.70;;;1.30;99.90;;;;;;5085777;28;20167;-54
2022/11/19 01:23:52;;;;;;;13.52;8.27;;;1.30;99.90;;;;;;5071441;28;20291;-54
2022/11/19 01:26:18;;;;;;;10.17;7.83;;;1.30;99.90;;;;;;5086081;28;20032;-53
2022/11/19 01:28:44;;;;;;;12.80;7.60;;;1.30;99.90;;;;;;5080335;28;20118;-55
2022/11/19 01:31:37;;;;;;;11.68;6.85;;;1.30;99.90;;;;;;5049922;28;20577;-54
2022/11/19 01:34:03;;;;;;;9.65;7.40;;;1.30;99.90;;;;;;5058765;28;20131;-51
2022/11/19 01:36:29;;;;;;;12.13;6.93;;;1.30;99.90;;;;;;5069552;28;20119;-54
2022/11/19 01:38:56;;;;;;;8.57;6.45;;;1.30;99.90;;;;;;5069790;28;20391;-56
2022/11/19 01:41:27;;;;;;;7.80;7.00;;;1.20;99.90;;;;;;5069343;28;20040;-51
2022/11/19 01:44:02;;;;;;;8.98;7.15;;;1.20;99.90;;;;;;5069124;28;20070;-55
2022/11/19 01:46:33;;;;;;;9.43;5.68;;;1.20;99.90;;;;;;5069578;28;20036;-52
2022/11/19 01:49:10;;;;;;;8.00;6.05;;;1.20;99.90;;;;;;5069313;28;20040;-55
2022/11/19 01:51:37;;;;;;;;;;;1.20;99.90;;;;;;5069710;28;20087;-54
2022/11/19 01:54:10;;;;;;;8.27;6.07;;;1.10;99.90;;;;;;5068610;28;19924;-53
2022/11/19 01:56:36;;;;;;;10.13;6.00;;;1.10;99.90;;;;;;5068974;28;20112;-54
2022/11/19 01:59:06;;;;;;;8.77;6.67;;;1.10;99.90;;;;;;5069941;28;20107;-51
2022/11/19 02:01:32;;;;;;;7.55;6.05;;;1.10;99.90;;;;;;5069533;28;20290;-51
2022/11/19 02:04:03;;;;;;;8.43;6.68;;;1.10;99.90;;;;;;5067979;28;20127;-52
2022/11/19 02:06:29;;;;;;;8.20;6.65;;;1.00;99.90;;;;;;5067545;28;20501;-56
2022/11/19 02:08:55;;;;;;;7.38;5.70;;;1.00;99.90;;;;;;5069620;28;20047;-54
2022/11/19 02:11:39;;;;;;;6.03;5.35;;;1.00;99.90;;;;;;5069583;28;20040;-53
2022/11/19 02:14:23;;;;;;;7.47;5.50;;;1.00;99.90;;;;;;5068492;28;20047;-55
2022/11/19 02:16:51;;;;;;;8.77;6.28;;;1.00;99.90;;;;;;5072041;28;20477;-56
2022/11/19 02:19:29;;;;;;;8.80;6.72;;;0.90;99.90;;;;;;5060474;28;20115;-54
2022/11/19 02:22:36;;;;;;;8.27;6.10;;;0.90;99.90;;;;;;5060718;28;20039;-52
2022/11/19 02:25:34;;;;;;;6.35;5.05;;;0.90;99.90;;;;;;5047170;28;20067;-52
2022/11/19 02:28:18;;;;;;;;;;;0.90;99.90;;;;;;5074066;28;20041;-53
2022/11/19 02:30:53;;;;;;;9.02;6.22;;;0.90;99.90;;;;;;5090697;28;19923;-55
2022/11/19 02:33:33;;;;;;;8.48;6.30;;;0.90;99.90;;;;;;5086576;28;20122;-51
2022/11/19 02:36:11;;;;;;;7.10;5.88;;;0.80;99.90;;;;;;5058850;28;20036;-55
2022/11/19 02:38:54;;;;;;;7.15;6.03;;;0.80;99.90;;;;;;5057281;28;20094;-55
2022/11/19 02:41:47;;;;;;;14.10;5.97;;;0.80;99.90;;;;;;5053552;28;20124;-55
2022/11/19 02:45:01;;;;;;;8.00;6.65;;;0.80;99.90;;;;;;5052205;28;20509;-55
2022/11/19 02:47:24;;;;;;;9.02;5.95;;;0.70;99.90;;;;;;5051249;28;20045;-51
2022/11/19 02:49:55;;;;;;;8.68;5.78;;;0.70;99.90;;;;;;5053136;28;20490;-51
2022/11/19 02:52:21;;;;;;;9.68;6.13;;;0.70;99.90;;;;;;5053676;28;20041;-54
2022/11/19 02:54:46;;;;;;;8.43;6.63;;;0.60;99.90;;;;;;5059573;28;20067;-54
2022/11/19 02:57:13;;;;;;;9.30;6.50;;;0.60;99.90;;;;;;5073148;28;20044;-53
2022/11/19 03:06:04;;;;;;;7.45;5.72;;;0.60;99.90;;;;;;5052313;28;20538;-54
2022/11/19 03:08:30;;;;;;;6.75;5.40;;;0.50;99.90;;;;;;5052919;28;20489;-54
2022/11/19 03:11:06;;;;;;;7.80;5.63;;;0.50;99.90;;;;;;5052010;28;20090;-53
2022/11/19 03:17:07;;;;;;;8.50;6.90;;;0.40;99.90;;;;;;5051983;28;20045;-56
2022/11/19 03:19:45;;;;;;;7.05;5.90;;;0.40;99.90;;;;;;5053797;28;20047;-51
2022/11/19 03:22:50;;;;;;;8.63;5.93;;;0.30;99.90;;;;;;5052475;28;20509;-50
2022/11/19 03:25:25;;;;;;;8.52;6.15;;;0.30;99.90;;;;;;4989217;28;20236;-51
2022/11/19 03:27:56;;;;;;;9.75;6.63;;;0.30;99.90;;;;;;5045195;28;20048;-52
2022/11/19 03:30:22;;;;;;;10.20;6.15;;;0.30;99.90;;;;;;5053715;28;20045;-51
2022/11/19 03:32:58;;;;;;;10.97;7.80;;;0.20;99.90;;;;;;5072035;28;20504;-51
2022/11/19 03:35:42;;;;;;;8.95;6.38;;;0.20;99.90;;;;;;5070917;28;20052;-51
2022/11/19 03:38:13;;;;;;;9.73;7.03;;;0.20;99.90;;;;;;5052515;28;20183;-53
2022/11/19 03:40:40;;;;;;;9.15;7.05;;;0.10;99.90;;;;;;5059633;28;20043;-54
2022/11/19 03:43:10;;;;;;;11.57;7.22;;;0.10;99.90;;;;;;5089479;28;20066;-51
2022/11/19 03:45:42;;;;;;;8.93;7.10;;;0.10;99.90;;;;;;5084675;28;20044;-55
2022/11/19 03:48:08;;;;;;;11.48;8.20;;;0.00;99.90;;;;;;5050982;28;20044;-51
2022/11/19 03:51:02;;;;;;;9.52;7.05;;;0.00;99.90;;;;;;5058910;28;20036;-53
2022/11/19 03:53:28;;;;;;;10.70;7.88;;;0.00;99.90;;;;;;5068155;28;20290;-54
2022/11/19 03:55:58;;;;;;;9.97;7.70;;;0.00;99.90;;;;;;5051437;28;20047;-54
2022/11/19 03:58:25;;;;;;;10.65;8.30;;;-0.10;99.90;;;;;;5052254;28;20765;-55
2022/11/19 04:00:51;;;;;;;10.60;7.65;;;-0.10;99.90;;;;;;5051476;28;20048;-51
2022/11/19 04:03:17;;;;;;;12.15;8.18;;;-0.10;99.90;;;;;;5062759;28;20115;-51
2022/11/19 04:05:42;;;;;;;13.57;8.00;;;-0.10;99.90;;;;;;5071216;28;20560;-51
2022/11/19 04:08:08;;;;;;;8.97;7.03;;;-0.10;99.90;;;;;;5071749;28;20036;-56
2022/11/19 04:10:34;;;;;;;12.30;7.90;;;-0.20;99.90;;;;;;5070853;28;20434;-55
2022/11/19 04:12:59;;;;;;;10.07;7.47;;;-0.20;99.90;;;;;;5051005;28;20120;-52
2022/11/19 04:15:25;;;;;;;12.20;8.87;;;-0.20;99.90;;;;;;5050516;28;20044;-55
2022/11/19 04:17:50;;;;;;;15.17;8.97;;;-0.20;99.90;;;;;;5051693;28;20032;-54
2022/11/19 04:20:16;;;;;;;12.50;8.93;;;-0.20;99.90;;;;;;5051471;28;20124;-53
2022/11/19 04:22:41;;;;;;;12.00;8.63;;;-0.20;99.90;;;;;;5050997;28;20124;-54
2022/11/19 04:25:07;;;;;;;9.93;7.10;;;-0.20;99.90;;;;;;5050180;28;20032;-54
2022/11/19 04:27:33;;;;;;;12.60;8.65;;;-0.20;99.90;;;;;;5051517;28;20417;-53
2022/11/19 04:29:58;;;;;;;13.37;9.27;;;-0.20;99.90;;;;;;5052585;28;20037;-54
2022/11/19 04:32:24;;;;;;;13.53;8.10;;;-0.20;99.90;;;;;;5051134;28;20537;-53
2022/11/19 04:34:49;;;;;;;10.63;8.50;;;-0.20;99.90;;;;;;5048583;28;20589;-50
2022/11/19 04:37:15;;;;;;;10.57;7.60;;;-0.30;99.90;;;;;;5051272;28;20043;-58
2022/11/19 04:39:40;;;;;;;10.23;8.00;;;-0.30;99.90;;;;;;5061326;28;20044;-54
2022/11/19 04:42:06;;;;;;;12.40;7.03;;;-0.30;99.90;;;;;;5070932;28;20052;-53
2022/11/19 04:44:31;;;;;;;10.30;7.40;;;-0.30;99.90;;;;;;5069825;28;20485;-58
2022/11/19 04:46:58;;;;;;;13.40;8.27;;;-0.30;99.90;;;;;;5070543;28;20072;-53
2022/11/19 04:49:24;;;;;;;;;;;-0.30;99.90;;;;;;5071383;28;20098;-57
2022/11/19 04:51:49;;;;;;;10.65;7.93;;;-0.40;99.90;;;;;;5070641;28;19920;-57
2022/11/19 04:54:15;;;;;;;9.73;7.27;;;-0.40;99.90;;;;;;5069532;28;20037;-53
2022/11/19 04:56:40;;;;;;;9.77;7.47;;;-0.40;99.90;;;;;;5068920;28;20033;-54
2022/11/19 04:59:06;;;;;;;12.57;8.23;;;-0.40;99.90;;;;;;5063538;28;20576;-56
2022/11/19 05:01:32;;;;;;;9.07;7.23;;;-0.40;99.90;;;;;;5050705;28;20037;-57
2022/11/19 05:03:57;;;;;;;9.47;7.03;;;-0.40;99.90;;;;;;5049405;28;20566;-50
2022/11/19 05:06:23;;;;;;;10.10;7.63;;;-0.50;99.90;;;;;;5050357;28;20091;-52
2022/11/19 05:08:48;;;;;;;9.70;7.63;;;-0.50;99.90;;;;;;5050587;28;20159;-54
2022/11/19 05:11:14;;;;;;;10.43;8.07;;;-0.50;99.90;;;;;;5050656;28;20098;-51
2022/11/19 05:13:39;;;;;;;9.83;7.40;;;-0.50;99.90;;;;;;5053201;28;20105;-51
2022/11/19 05:16:05;;;;;;;11.10;8.37;;;-0.50;99.90;;;;;;5069361;28;20483;-55
2022/11/19 05:18:31;;;;;;;9.65;8.40;;;-0.50;99.90;;;;;;5070247;28;20068;-54
2022/11/19 05:20:57;;;;;;;11.67;7.90;;;-0.50;99.90;;;;;;5070245;28;20616;-55
2022/11/19 05:23:23;;;;;;;12.03;8.03;;;-0.60;99.90;;;;;;5069070;28;20041;-51
2022/11/19 05:25:48;;;;;;;9.20;7.18;;;-0.60;99.90;;;;;;5069395;28;20041;-51
2022/11/19 05:28:14;;;;;;;10.30;7.87;;;-0.60;99.90;;;;;;5070310;28;20263;-53
2022/11/19 05:30:40;;;;;;;11.10;8.53;;;-0.60;99.90;;;;;;5068326;28;20049;-55
2022/11/19 05:33:05;;;;;;;10.87;8.10;;;-0.70;99.90;;;;;;5068513;28;20433;-53
2022/11/19 05:35:31;;;;;;;10.83;8.30;;;-0.70;99.90;;;;;;5068241;28;20037;-55
2022/11/19 05:37:56;;;;;;;10.23;8.27;;;-0.70;99.90;;;;;;5069666;28;20032;-51
2022/11/19 05:40:22;;;;;;;11.07;8.43;;;-0.70;99.90;;;;;;5069894;28;20056;-51
2022/11/19 05:42:47;;;;;;;10.30;8.27;;;-0.70;99.90;;;;;;5069751;28;20039;-54
2022/11/19 05:45:13;;;;;;;11.30;9.13;;;-0.70;99.90;;;;;;5068546;28;20498;-53
2022/11/19 05:47:39;;;;;;;13.37;9.30;;;-0.70;99.90;;;;;;5057923;28;20041;-53
2022/11/19 05:50:05;;;;;;;12.73;8.43;;;-0.80;99.90;;;;;;5051621;28;20041;-50
2022/11/19 05:52:30;;;;;;;12.00;9.27;;;-0.80;99.90;;;;;;5068414;28;20293;-50
2022/11/19 05:54:56;;;;;;;13.47;10.17;;;-0.80;99.90;;;;;;5075082;28;20047;-51
2022/11/19 05:57:21;;;;;;;14.20;10.07;;;-0.80;99.90;;;;;;5073794;28;20029;-54
2022/11/19 05:59:47;;;;;;;14.30;10.03;;;-0.80;99.90;;;;;;5069163;28;20497;-57
2022/11/19 06:02:12;;;;;;;13.77;9.40;;;-0.80;99.90;;;;;;5069729;28;20089;-53
2022/11/19 06:04:38;;;;;;;14.67;11.03;;;-0.90;99.90;;;;;;5060391;28;20071;-52
2022/11/19 06:07:04;;;;;;;15.27;10.33;;;-0.90;99.90;;;;;;5049624;28;20041;-53
2022/11/19 06:09:29;;;;;;;16.33;10.37;;;-0.90;99.90;;;;;;5049623;28;20045;-51
2022/11/19 06:11:55;;;;;;;13.23;10.00;;;-0.90;99.90;;;;;;5050109;28;20443;-51
2022/11/19 06:14:23;;;;;;;15.97;10.23;;;-0.90;99.90;;;;;;5057085;28;20048;-51
2022/11/19 06:16:53;;;;;;;13.98;10.40;;;-0.90;99.90;;;;;;5069436;28;20059;-52
2022/11/19 06:19:20;;;;;;;17.50;11.32;;;-0.90;99.90;;;;;;5069877;28;20501;-53
2022/11/19 06:21:46;;;;;;;17.10;11.45;;;-1.00;99.90;;;;;;5064213;28;20033;-54
2022/11/19 06:24:11;;;;;;;19.00;12.27;;;-1.00;99.90;;;;;;5050884;28;20033;-52
2022/11/19 06:26:37;;;;;;;14.68;11.05;;;-1.00;99.90;;;;;;5068149;28;20037;-54
2022/11/19 06:29:03;;;;;;;17.45;12.27;;;-1.00;99.90;;;;;;5079586;28;20455;-53
2022/11/19 06:31:28;;;;;;;14.93;11.30;;;-1.00;99.90;;;;;;5069760;28;20397;-55
2022/11/19 06:33:54;;;;;;;17.87;11.97;;;-1.00;99.90;;;;;;5073457;28;20409;-52
2022/11/19 06:36:20;;;;;;;18.97;12.67;;;-1.00;99.90;;;;;;5079953;28;20040;-53
2022/11/19 06:38:46;;;;;;;14.15;11.50;;;-1.00;99.90;;;;;;5071027;28;20051;-50
2022/11/19 06:41:12;;;;;;;15.70;12.07;;;-1.00;99.90;;;;;;5075970;28;20044;-55
2022/11/19 06:43:37;;;;;;;14.27;10.53;;;-1.00;99.90;;;;;;5073952;28;20436;-54
2022/11/19 06:46:03;;;;;;;15.90;11.50;;;-1.00;99.90;;;;;;5072620;28;20283;-54
2022/11/19 06:48:28;;;;;;;17.13;11.67;;;-1.00;99.90;;;;;;5069166;28;20040;-54
2022/11/19 06:50:54;;;;;;;15.67;11.90;;;-1.00;99.90;;;;;;5067933;28;20111;-55
2022/11/19 06:53:20;;;;;;;16.60;11.60;;;-1.10;99.90;;;;;;5067874;28;20076;-55
2022/11/19 06:55:45;;;;;;;15.70;11.90;;;-1.00;99.90;;;;;;5067347;28;20373;-53
2022/11/19 06:58:13;;;;;;;15.53;12.77;;;-1.10;99.90;;;;;;5049481;28;20147;-54
2022/11/19 07:00:38;;;;;;;17.80;11.85;;;-1.10;99.90;;;;;;5049235;28;20095;-54
2022/11/19 07:03:04;;;;;;;16.50;10.77;;;-1.10;99.90;;;;;;5054280;28;20041;-54
2022/11/19 07:05:29;;;;;;;16.87;13.37;;;-1.10;99.90;;;;;;5072446;28;20283;-56
2022/11/19 07:07:55;;;;;;;15.83;10.90;;;-1.10;99.90;;;;;;5073109;28;20665;-55
2022/11/19 07:10:21;;;;;;;14.00;11.20;;;-1.10;99.90;;;;;;5072695;28;20044;-54
2022/11/19 07:12:46;;;;;;;17.00;11.20;;;-1.00;99.90;;;;;;5072059;28;20052;-51
2022/11/19 07:15:12;;;;;;;16.63;11.60;;;-1.00;99.90;;;;;;5053348;28;20060;-52
2022/11/19 07:17:37;;;;;;;15.33;11.60;;;-1.00;99.90;;;;;;5052732;28;20029;-53
2022/11/19 07:20:06;;;;;;;14.50;10.90;;;-0.90;99.90;;;;;;5052898;28;20048;-50
2022/11/19 07:22:32;;;;;;;14.38;10.52;;;-0.80;99.90;;;;;;5052983;28;20033;-51
2022/11/19 07:24:57;;;;;;;14.87;10.83;;;-0.70;99.90;;;;;;5050489;28;20045;-53
2022/11/19 07:27:23;;;;;;;14.63;9.67;;;-0.40;99.90;;;;;;5051069;28;20049;-51
2022/11/19 07:29:49;;;;;;;16.43;11.53;;;-0.20;99.90;;;;;;5052313;28;20037;-53
2022/11/19 07:32:14;;;;;;;15.97;10.80;;;-0.10;99.90;;;;;;5053751;28;20126;-54
2022/11/19 07:34:40;;;;;;;12.40;10.03;;;0.20;99.90;;;;;;5050805;28;20080;-56
2022/11/19 07:37:05;;;;;;;10.60;9.07;;;0.70;99.90;;;;;;5052311;28;20563;-51
2022/11/19 07:39:31;;;;;;;10.93;9.30;;;1.10;99.90;;;;;;5054025;28;20549;-51
2022/11/19 07:44:41;;;;;;;13.70;8.95;;;1.30;99.90;;;;;;5070926;28;20044;-55
2022/11/19 07:47:07;;;;;;;13.67;9.40;;;1.20;99.90;;;;;;5072141;28;20515;-54
2022/11/19 07:49:33;;;;;;;9.73;8.73;;;1.30;99.90;;;;;;5069072;28;20057;-54
2022/11/19 07:51:59;;;;;;;11.63;9.38;;;1.70;99.90;;;;;;5071485;28;20033;-53
2022/11/19 07:54:25;;;;;;;12.90;9.73;;;2.40;99.90;;;;;;5070255;28;20611;-57
2022/11/19 07:56:51;;;;;;;9.60;7.87;;;2.90;99.90;;;;;;5071853;28;20029;-53
2022/11/19 07:59:16;;;;;;;13.70;9.00;;;3.10;99.90;;;;;;5075443;28;20043;-51
2022/11/19 08:01:42;;;;;;;11.30;9.43;;;3.40;99.90;;;;;;5071919;28;20116;-51
2022/11/19 08:04:08;;;;;;;8.27;7.47;;;3.80;99.90;;;;;;5072187;28;20039;-53
2022/11/19 08:06:33;;;;;;;9.30;7.47;;;4.40;99.90;;;;;;5071023;28;20102;-55
2022/11/19 08:09:01;;;;;;;12.13;8.13;;;5.10;99.90;;;;;;5082421;28;20055;-52
2022/11/19 08:11:27;;;;;;;9.88;7.28;;;5.80;99.90;;;;;;5050687;28;20068;-51
2022/11/19 08:13:52;;;;;;;8.70;7.80;;;6.30;99.90;;;;;;5077800;28;20098;-52
2022/11/19 08:19:08;;;;;;;9.15;7.47;;;7.20;95.70;;;;;;5071335;28;20028;-53
2022/11/19 08:21:34;;;;;;;8.13;7.20;;;7.60;94.00;;;;;;5071785;28;20048;-57
2022/11/19 08:24:00;;;;;;;8.43;7.55;;;7.80;91.60;;;;;;5061342;28;20064;-55
2022/11/19 08:26:26;;;;;;;7.38;6.70;;;8.00;91.20;;;;;;5049821;28;20502;-57
2022/11/19 08:28:52;;;;;;;6.83;6.23;;;8.50;91.40;;;;;;5051226;28;20040;-52
2022/11/19 08:31:18;;;;;;;7.15;6.50;;;9.10;90.20;;;;;;5070199;28;20115;-53
2022/11/19 08:33:43;;;;;;;6.63;6.03;;;9.30;87.70;;;;;;5068498;28;20120;-54
2022/11/19 08:36:09;;;;;;;7.23;6.57;;;9.30;85.00;;;;;;5070746;28;20285;-57
2022/11/19 08:38:35;;;;;;;7.10;6.40;;;9.50;82.70;;;;;;5071970;28;20063;-55
2022/11/19 08:43:45;;;;;;;6.88;5.65;;;10.10;81.40;;;;;;5063550;28;20061;-56
2022/11/19 08:46:11;;;;;;;6.47;5.80;;;10.40;79.80;;;;;;5050778;28;20065;-56
2022/11/19 08:48:36;;;;;;;6.38;5.68;;;10.40;77.20;;;;;;5050837;28;20041;-55
2022/11/19 08:51:03;;;;;;;6.83;6.13;;;10.10;74.60;;;;;;5053517;28;20101;-52
2022/11/19 08:53:29;;;;;;;6.85;6.10;;;10.00;72.70;;;;;;5089212;28;20416;-57
2022/11/19 08:55:54;;;;;;;7.40;5.40;;;10.00;73.20;;;;;;5059312;28;20037;-56
2022/11/19 08:58:20;;;;;;;8.77;6.77;;;10.10;73.50;;;;;;5049308;28;20124;-53
2022/11/19 09:00:46;;;;;;;6.80;5.78;;;10.10;72.90;;;;;;5064421;28;20124;-58
2022/11/19 09:03:11;;;;;;;8.27;6.00;;;10.20;72.90;;;;;;5089763;28;20631;-54
2022/11/19 09:05:37;;;;;;;9.90;6.50;;;10.10;70.00;;;;;;5088692;28;20168;-55
2022/11/19 09:08:02;;;;;;;6.73;6.03;;;10.10;70.80;;;;;;5089460;28;20036;-55
2022/11/19 09:10:28;;;;;;;7.23;6.50;;;10.40;71.20;;;;;;5088919;28;20286;-57
2022/11/19 09:12:53;;;;;;;9.33;6.17;;;10.80;71.00;;;;;;5066454;28;20048;-57
2022/11/19 09:15:19;;;;;;;6.07;5.50;;;11.10;68.60;;;;;;5063958;28;20054;-54
2022/11/19 09:17:45;;;;;;;8.35;6.35;;;11.50;69.10;;;;;;5050051;28;20747;-55
2022/11/19 09:20:11;;;;;;;6.72;6.13;;;11.80;68.80;;;;;;5070023;28;20036;-57
2022/11/19 09:22:37;;;;;;;9.40;6.88;;;11.90;67.20;;;;;;5090271;28;20085;-55
2022/11/19 09:25:03;;;;;;;9.95;6.93;;;12.20;66.10;;;;;;5074161;28;20517;-56
2022/11/19 09:27:29;;;;;;;7.22;6.53;;;12.60;67.40;;;;;;5054430;28;20032;-55
2022/11/19 09:29:54;;;;;;;7.60;6.90;;;12.60;64.70;;;;;;5056619;28;20119;-56
2022/11/19 09:32:20;;;;;;;8.20;6.23;;;12.40;63.20;;;;;;5069823;28;20294;-56
2022/11/19 09:34:45;;;;;;;7.47;6.72;;;12.30;62.40;;;;;;5069513;28;20135;-52
2022/11/19 09:37:11;;;;;;;8.60;7.60;;;11.50;62.30;;;;;;5070262;28;20036;-50
2022/11/19 09:39:37;;;;;;;35.70;8.37;;;10.20;62.30;;;;;;5065578;28;20489;-52
2022/11/19 09:42:21;;;;;;;18.67;7.73;;;9.20;64.50;;;;;;5059675;28;20405;-55
2022/11/19 09:44:55;;;;;;;9.85;6.30;;;8.70;67.20;;;;;;5067679;28;20129;-54
2022/11/19 09:47:35;;;;;;;7.07;6.32;;;8.90;67.20;;;;;;5062527;28;20131;-54
2022/11/19 09:50:14;;;;;;;7.95;7.15;;;9.00;66.30;;;;;;5070115;28;20442;-52
2022/11/19 09:52:47;;;;;;;8.23;6.97;;;9.20;66.00;;;;;;5050321;28;20119;-51
2022/11/19 09:55:19;;;;;;;8.25;7.13;;;9.30;66.50;;;;;;5048836;28;20080;-57
2022/11/19 09:57:55;;;;;;;10.05;7.65;;;9.20;65.60;;;;;;5078676;28;20099;-54
2022/11/19 10:00:27;;;;;;;7.82;7.03;;;9.00;65.90;;;;;;5070448;28;20512;-51
2022/11/19 10:02:54;;;;;;;8.52;7.60;;;8.60;66.30;;;;;;5069374;28;20032;-60
2022/11/19 10:05:29;;;;;;;10.20;7.90;;;7.90;66.20;;;;;;5068912;28;20036;-52
2022/11/19 10:08:25;;;;;;;7.75;6.82;;;7.80;68.40;;;;;;5066257;28;20090;-57
2022/11/19 10:11:03;;;;;;;9.50;7.82;;;8.00;69.70;;;;;;5075599;28;20403;-54
2022/11/19 10:13:58;;;;;;;10.55;7.35;;;7.70;68.10;;;;;;5072170;28;20058;-50
2022/11/19 10:16:48;;;;;;;8.23;7.03;;;7.20;69.30;;;;;;5047750;28;20131;-53
2022/11/19 10:19:32;;;;;;;12.45;7.07;;;7.20;70.90;;;;;;5069897;28;20036;-51
2022/11/19 10:22:06;;;;;;;8.75;6.78;;;6.90;69.70;;;;;;5077806;28;20040;-52
2022/11/19 10:24:55;;;;;;;8.00;6.90;;;6.90;71.20;;;;;;5068271;28;20032;-56
2022/11/19 10:27:36;;;;;;;10.32;7.97;;;6.90;71.60;;;;;;5074872;28;20036;-52
2022/11/19 10:30:10;;;;;;;9.70;7.45;;;7.00;71.80;;;;;;5055904;28;20059;-56
2022/11/19 10:32:49;;;;;;;11.23;6.60;;;7.20;71.90;;;;;;5080656;28;20505;-54
2022/11/19 10:35:21;;;;;;;7.68;6.95;;;7.10;71.50;;;;;;5085612;28;20556;-51
2022/11/19 10:37:55;;;;;;;8.27;7.15;;;7.30;71.60;;;;;;5082557;28;20045;-52
2022/11/19 10:40:24;;;;;;;7.53;6.75;;;7.40;72.10;;;;;;5079433;28;20067;-52
2022/11/19 10:42:57;;;;;;;7.22;6.13;;;7.40;70.40;;;;;;5072671;28;20123;-54
2022/11/19 10:45:27;;;;;;;10.50;7.53;;;7.20;70.90;;;;;;5073468;28;20088;-55
2022/11/19 10:48:12;;;;;;;8.10;6.47;;;7.10;71.50;;;;;;5071824;28;20486;-54
2022/11/19 10:50:38;;;;;;;8.68;6.75;;;7.20;72.50;;;;;;5053545;28;20494;-51
2022/11/19 10:53:25;;;;;;;8.27;6.93;;;7.60;72.80;;;;;;5059501;28;20037;-53
2022/11/19 10:56:02;;;;;;;7.77;6.73;;;7.40;71.60;;;;;;5071143;28;20036;-54
2022/11/19 10:58:41;;;;;;;7.25;6.55;;;7.40;71.90;;;;;;5066114;28;20075;-56
2022/11/19 11:01:27;;;;;;;8.45;6.15;;;7.20;70.50;;;;;;5058959;28;20493;-53
2022/11/19 11:04:22;;;;;;;6.88;5.55;;;7.10;70.90;;;;;;5074259;28;20043;-55
2022/11/19 11:06:56;;;;;;;6.35;5.78;;;7.20;70.50;;;;;;5080976;28;20477;-54
2022/11/19 11:09:36;;;;;;;6.65;5.13;;;7.20;71.40;;;;;;5074004;28;20370;-55
2022/11/19 11:15:11;;;;;;;7.03;5.38;;;7.70;71.70;;;;;;5051236;28;20045;-55
2022/11/19 11:17:37;;;;;;;6.88;6.15;;;7.50;70.70;;;;;;5057480;28;20115;-54
2022/11/19 11:20:05;;;;;;;;;;;7.40;70.90;;;;;;5089186;28;20040;-56
2022/11/19 11:22:31;;;;;;;6.47;4.57;;;7.70;72.20;;;;;;5092028;28;19916;-54
2022/11/19 11:24:58;;;;;;;;;;;8.50;73.90;;;;;;5088022;28;20036;-55
2022/11/19 11:27:29;;;;;;;6.30;4.53;;;9.10;71.80;;;;;;5083997;28;20301;-54
2022/11/19 11:30:10;;;;;;;5.03;4.50;;;9.50;70.90;;;;;;5062022;28;20117;-56
2022/11/19 11:32:37;;;;;;;4.75;4.28;;;9.60;69.60;;;;;;5066531;28;20044;-53
2022/11/19 11:35:04;;;;;;;4.97;4.45;;;9.60;70.00;;;;;;5070518;28;20047;-57
2022/11/19 11:37:29;;;;;;;;;;;9.60;69.00;;;;;;5082737;28;20401;-56
2022/11/19 11:39:57;;;;;;;4.35;3.95;;;9.70;68.00;;;;;;5065060;28;19919;-55
2022/11/19 11:42:25;;;;;;;5.10;4.53;;;9.80;67.90;;;;;;5063559;28;20101;-54
2022/11/19 11:44:54;;;;;;;4.82;4.32;;;9.90;66.90;;;;;;5070504;28;20489;-55
2022/11/19 11:47:29;;;;;;;7.75;5.03;;;9.70;66.70;;;;;;5071492;28;20040;-58
2022/11/19 11:50:15;;;;;;;5.63;5.03;;;9.60;66.80;;;;;;5070552;28;20557;-58
2022/11/19 11:52:43;;;;;;;4.00;3.60;;;9.50;67.80;;;;;;5051803;28;20068;-54
2022/11/19 11:55:30;;;;;;;6.45;4.40;;;9.70;66.80;;;;;;5050408;28;20120;-51
2022/11/19 11:58:25;;;;;;;4.30;3.90;;;9.70;65.50;;;;;;5051385;28;20091;-53
2022/11/19 12:01:08;;;;;;;4.88;3.42;;;10.00;66.10;;;;;;5072057;28;20409;-52
2022/11/19 12:03:34;;;;;;;4.82;4.32;;;10.40;66.60;;;;;;5070942;28;20129;-51
2022/11/19 12:06:15;;;;;;;4.37;3.97;;;10.30;65.90;;;;;;5071650;28;20129;-52
2022/11/19 12:09:16;;;;;;;4.53;4.10;;;10.30;65.90;;;;;;5071875;28;20448;-56
2022/11/19 12:11:54;;;;;;;3.80;3.50;;;10.60;65.70;;;;;;4999521;28;20447;-51
2022/11/19 12:14:25;;;;;;;5.32;4.82;;;11.20;66.00;;;;;;5008946;28;20054;-52
2022/11/19 12:17:07;;;;;;;4.57;4.18;;;12.00;65.80;;;;;;4989207;28;20042;-54
2022/11/19 12:19:59;;;;;;;5.95;5.30;;;12.70;64.50;;;;;;5006075;28;20621;-52
2022/11/19 12:22:55;;;;;;;9.05;5.60;;;13.10;63.00;;;;;;5020621;28;20045;-51
2022/11/19 12:25:35;;;;;;;4.35;3.95;;;13.30;63.30;;;;;;5008018;28;20046;-51
2022/11/19 12:28:16;;;;;;;5.30;4.80;;;14.10;62.50;;;;;;5007440;28;20096;-52
2022/11/19 12:31:00;;;;;;;6.55;4.80;;;14.90;61.40;;;;;;5001995;28;20042;-53
2022/11/19 12:33:44;;;;;;;4.18;3.78;;;15.70;59.30;;;;;;5022764;28;20085;-53
2022/11/19 12:36:27;;;;;;;4.15;3.22;;;16.10;59.40;;;;;;5014851;28;20050;-53
2022/11/19 12:39:05;;;;;;;3.78;3.38;;;16.60;58.70;;;;;;5002867;28;20050;-51
2022/11/19 12:41:37;;;;;;;4.57;3.55;;;17.20;57.50;;;;;;5009856;28;20205;-52
2022/11/19 12:44:12;;;;;;;4.10;3.70;;;17.60;57.80;;;;;;5008418;28;20037;-52
2022/11/19 12:46:44;;;;;;;5.15;3.85;;;18.00;55.20;;;;;;5019186;28;20358;-51
2022/11/19 12:49:41;;;;;;;4.95;4.50;;;17.90;54.80;;;;;;5057717;28;20099;-54
2022/11/19 12:52:15;;;;;;;4.43;4.03;;;18.00;54.20;;;;;;5066921;28;20044;-53
2022/11/19 12:54:59;;;;;;;5.13;4.63;;;18.40;56.30;;;;;;5048806;28;20494;-52
2022/11/19 12:57:36;;;;;;;5.88;4.00;;;18.80;54.80;;;;;;5066512;28;20088;-54
2022/11/19 13:00:15;;;;;;;4.50;3.60;;;19.30;55.70;;;;;;5065399;28;20120;-52
2022/11/19 13:02:55;;;;;;;4.60;4.00;;;19.70;54.00;;;;;;5059640;28;20219;-58
2022/11/19 13:05:20;;;;;;;4.20;3.42;;;20.30;54.10;;;;;;5068956;28;20493;-56
2022/11/19 13:07:55;;;;;;;3.67;3.37;;;20.60;54.70;;;;;;5053281;28;20146;-56
2022/11/19 13:10:24;;;;;;;4.05;3.65;;;20.90;53.40;;;;;;5058464;28;20052;-54
2022/11/19 13:12:54;;;;;;;3.60;3.30;;;21.10;53.90;;;;;;5065921;28;20406;-60
2022/11/19 13:15:23;;;;;;;3.60;3.30;;;20.90;53.40;;;;;;5049205;28;20044;-51
2022/11/19 13:17:52;;;;;;;4.55;3.17;;;20.40;52.90;;;;;;5067384;28;20524;-52
2022/11/19 13:20:43;;;;;;;5.97;3.28;;;19.10;51.80;;;;;;5070399;28;20432;-52
2022/11/19 13:23:16;;;;;;;6.22;2.85;;;17.80;51.90;;;;;;5068602;28;20040;-56
2022/11/19 13:25:47;;;;;;;4.13;3.72;;;17.30;54.30;;;;;;5069365;28;20453;-52